Stations météo

Publicité
Mannheim City Airport, Allemagne (10730): Température de l'air & dewpoint: 17.10.2018 22:00:00 - 23.10.2018 22:00:00 (CEST)Mannheim City Airport, Allemagne (10730): Vitesse du vent: 17.10.2018 22:00:00 - 23.10.2018 22:00:00 (CEST)Mannheim City Airport, Allemagne (10730): Direction du vent: 17.10.2018 22:00:00 - 23.10.2018 22:00:00 (CEST)Mannheim City Airport, Allemagne (10730): visibility: 17.10.2018 22:00:00 - 23.10.2018 22:00:00 (CEST)
Date & Time tt [°C] td [°C] ff [km/h] ff [knt] dd vv [km]
23.10.2018 22:00:00 14,0 5,0 15 8 WSW 10
23.10.2018 21:00:00 14,0 4,0 9 5 SW 10
23.10.2018 20:00:00 14,0 3,0 11 6 WSW 10
23.10.2018 19:00:00 14,0 2,0 13 7 WSW 10
23.10.2018 18:00:00 14,0 1,0 11 6 SW 10
23.10.2018 17:00:00 14,0 2,0 15 8 WSW 10
23.10.2018 16:00:00 14,0 2,0 18 10 WSW 10
23.10.2018 15:00:00 14,0 3,0 15 8 SSW 10
23.10.2018 14:00:00 13,0 4,0 9 5 SSW 10
23.10.2018 13:00:00 13,0 5,0 11 6 SSW 10
23.10.2018 12:00:00 11,0 6,0 9 5 S 10
23.10.2018 11:00:00 8,0 6,0 8 4 S 10
23.10.2018 10:00:00 7,0 6,0 8 4 SE 10
23.10.2018 09:00:00 6,0 5,0 8 4 S 8
23.10.2018 08:00:00 4,0 3,0 4 2 - 10
23.10.2018 07:00:00 4,0 4,0 0 0 N 10
23.10.2018 06:00:00 3,0 3,0 0 0 N 10
23.10.2018 05:00:00 - - - - - -
23.10.2018 04:00:00 - - - - - -
23.10.2018 03:00:00 - - - - - -
23.10.2018 02:00:00 - - - - - -
23.10.2018 01:00:00 - - - - - -
23.10.2018 00:00:00 - - - - - -
22.10.2018 23:00:00 - - - - - -
22.10.2018 22:00:00 11,0 7,0 9 5 N 10
22.10.2018 21:00:00 12,0 7,0 11 6 N 10
22.10.2018 20:00:00 13,0 7,0 15 8 N 10
22.10.2018 19:00:00 13,0 8,0 18 10 N 10
22.10.2018 18:00:00 14,0 8,0 16 9 N 10
22.10.2018 17:00:00 15,0 6,0 18 10 N 10
22.10.2018 16:00:00 16,0 6,0 18 10 NNW 10
22.10.2018 15:00:00 16,0 4,0 13 7 NNW 10
22.10.2018 14:00:00 15,0 4,0 11 6 NNW 10
22.10.2018 13:00:00 15,0 4,0 5 3 - 10
22.10.2018 12:00:00 13,0 5,0 8 4 NNW 10
22.10.2018 11:00:00 9,0 5,0 4 2 - 10
22.10.2018 10:00:00 8,0 5,0 5 3 N 10
22.10.2018 09:00:00 6,0 5,0 4 2 N 10
22.10.2018 08:00:00 6,0 5,0 4 2 - 10
22.10.2018 07:00:00 6,0 5,0 5 3 - 10
22.10.2018 06:00:00 6,0 5,0 4 2 - 10
22.10.2018 05:00:00 - - - - - -
22.10.2018 04:00:00 - - - - - -
22.10.2018 03:00:00 - - - - - -
22.10.2018 02:00:00 - - - - - -
22.10.2018 01:00:00 - - - - - -
22.10.2018 00:00:00 - - - - - -
21.10.2018 23:00:00 - - - - - -
21.10.2018 22:00:00 - - - - - -
21.10.2018 21:00:00 11,0 4,0 4 2 NE 10
21.10.2018 20:00:00 13,0 4,0 11 6 NE 10
21.10.2018 19:00:00 15,0 4,0 5 3 E 10
21.10.2018 18:00:00 17,0 3,0 8 4 E 10
21.10.2018 17:00:00 18,0 3,0 8 4 E 10
21.10.2018 16:00:00 18,0 3,0 5 3 - 10
21.10.2018 15:00:00 18,0 3,0 5 3 - 10
21.10.2018 14:00:00 17,0 4,0 9 5 ENE 10
21.10.2018 13:00:00 15,0 5,0 4 2 - 10
21.10.2018 12:00:00 13,0 5,0 4 2 - 10
21.10.2018 11:00:00 10,0 5,0 4 2 - 10
21.10.2018 10:00:00 8,0 5,0 5 3 - 10
21.10.2018 09:00:00 5,0 3,0 4 2 NNW 10
21.10.2018 08:00:00 4,0 3,0 0 0 N 10
21.10.2018 07:00:00 - - - - - -
21.10.2018 06:00:00 - - - - - -
21.10.2018 05:00:00 - - - - - -
21.10.2018 04:00:00 - - - - - -
21.10.2018 03:00:00 - - - - - -
21.10.2018 02:00:00 - - - - - -
21.10.2018 01:00:00 - - - - - -
21.10.2018 00:00:00 - - - - - -
20.10.2018 23:00:00 - - - - - -
20.10.2018 22:00:00 - - - - - -
20.10.2018 21:00:00 13,0 8,0 8 4 NNW 10
20.10.2018 20:00:00 14,0 8,0 9 5 N 10
20.10.2018 19:00:00 15,0 7,0 8 4 NNW 10
20.10.2018 18:00:00 16,0 7,0 8 4 N 10
20.10.2018 17:00:00 17,0 7,0 13 7 NNW 10
20.10.2018 16:00:00 18,0 7,0 11 6 NNW 10
20.10.2018 15:00:00 19,0 7,0 13 7 NNW 10
20.10.2018 14:00:00 18,0 7,0 13 7 NE 10
20.10.2018 13:00:00 18,0 8,0 9 5 NNE 10
20.10.2018 12:00:00 16,0 9,0 8 4 NNW 10
20.10.2018 11:00:00 14,0 10,0 11 6 N 10
20.10.2018 10:00:00 13,0 10,0 9 5 NNW 8
20.10.2018 09:00:00 11,0 10,0 4 2 - 7
20.10.2018 08:00:00 9,0 8,0 4 2 NNW 7
20.10.2018 07:00:00 - - - - - -
20.10.2018 06:00:00 - - - - - -
20.10.2018 05:00:00 - - - - - -
20.10.2018 04:00:00 - - - - - -
20.10.2018 03:00:00 - - - - - -
20.10.2018 02:00:00 - - - - - -
20.10.2018 01:00:00 - - - - - -
20.10.2018 00:00:00 - - - - - -
19.10.2018 23:00:00 - - - - - -
19.10.2018 22:00:00 - - - - - -
19.10.2018 21:00:00 13,0 10,0 4 2 N 10
19.10.2018 20:00:00 15,0 11,0 8 4 N 10
19.10.2018 19:00:00 17,0 11,0 5 3 NW 10
19.10.2018 18:00:00 19,0 11,0 5 3 NW 10
19.10.2018 17:00:00 20,0 11,0 9 5 NW 10
19.10.2018 16:00:00 20,0 10,0 9 5 NW 10
19.10.2018 15:00:00 19,0 10,0 9 5 WNW 10
19.10.2018 14:00:00 18,0 10,0 8 4 NNW 10
19.10.2018 13:00:00 17,0 10,0 4 2 - 10
19.10.2018 12:00:00 16,0 10,0 8 4 N 10
19.10.2018 11:00:00 14,0 10,0 9 5 NNW 10
19.10.2018 10:00:00 12,0 10,0 5 3 - 10
19.10.2018 09:00:00 10,0 8,0 5 3 N 9
19.10.2018 08:00:00 9,0 8,0 9 5 N 8
19.10.2018 07:00:00 10,0 8,0 9 5 N 10
19.10.2018 06:00:00 10,0 9,0 5 3 N 8
19.10.2018 05:00:00 - - - - - -
19.10.2018 04:00:00 - - - - - -
19.10.2018 03:00:00 - - - - - -
19.10.2018 02:00:00 - - - - - -
19.10.2018 01:00:00 - - - - - -
19.10.2018 00:00:00 - - - - - -
18.10.2018 23:00:00 - - - - - -
18.10.2018 22:00:00 - - - - - -
18.10.2018 21:00:00 16,0 11,0 13 7 N 10
18.10.2018 20:00:00 17,0 11,0 15 8 N 10
18.10.2018 19:00:00 18,0 12,0 15 8 N 10
18.10.2018 18:00:00 20,0 12,0 18 10 N 10
18.10.2018 17:00:00 22,0 12,0 18 10 N 10
18.10.2018 16:00:00 22,0 12,0 18 10 N 10
18.10.2018 15:00:00 22,0 11,0 9 5 NNW 10
18.10.2018 14:00:00 21,0 11,0 11 6 NW 10
18.10.2018 13:00:00 19,0 12,0 8 4 NNW 10
18.10.2018 12:00:00 17,0 11,0 13 7 NNW 10
18.10.2018 11:00:00 15,0 11,0 15 8 N 10
18.10.2018 10:00:00 13,0 11,0 9 5 N 10
18.10.2018 09:00:00 11,0 10,0 4 2 - 10
18.10.2018 08:00:00 10,0 9,0 5 3 N 10
18.10.2018 07:00:00 11,0 9,0 4 2 N 10
18.10.2018 06:00:00 11,0 10,0 2 1 - 10
18.10.2018 05:00:00 - - - - - -
18.10.2018 04:00:00 - - - - - -
18.10.2018 03:00:00 - - - - - -
18.10.2018 02:00:00 - - - - - -
18.10.2018 01:00:00 - - - - - -
18.10.2018 00:00:00 - - - - - -
17.10.2018 23:00:00 - - - - - -
17.10.2018 22:00:00 - - - - - -

tt = Température de l'air
td = dewpoint
ff = Vitesse du vent
dd = Direction du vent
vv = visibility

stations d'obs. à proximité